Data for 08/27/2016

Time Sea-Level Adjusted Pressure Absolute Pressure Temperature Relative Humidity Dew Point   
(mb) (inHg) (mb) (inHg) (C) (F) (%) (C) (F)
00:05 1018 30.06 847 25.01 12.6 54.7 46 1.3 34.3
00:10 1018 30.06 847 25.01 12.6 54.7 44 0.8 33.4
00:15 1018 30.06 847 25.01 12.6 54.7 45 0.9 33.6
00:20 1018 30.06 847 25.01 12.4 54.3 45 0.9 33.5
00:25 1018 30.06 847 25.01 12.3 54.2 46 1 33.8
00:30 1018 30.06 847 25.01 12.2 53.9 45 0.8 33.4
00:35 1018 30.06 847 25.01 12.2 54 45 0.7 33.3
00:40 1018 30.06 847 25.01 12.2 54 46 0.9 33.7
00:45 1018 30.06 847 25.01 12.2 54 46 0.9 33.7
00:50 1018 30.06 847 25.01 12.1 53.8 46 0.8 33.5
00:55 1018 30.06 847 25.01 12 53.6 46 0.8 33.5
01:00 1018 30.06 847 25.01 11.9 53.3 46 0.6 33.1
01:05 1018 30.06 847 25.01 11.7 53.1 46 0.7 33.2
01:10 1018 30.06 847 25.01 11.6 52.8 47 0.7 33.2
01:15 1018 30.06 847 25.01 11.4 52.6 47 0.7 33.3
01:20 1018 30.06 847 25.01 11.3 52.4 48 0.7 33.3
01:25 1018 30.06 847 25.01 11.2 52.1 48 0.5 32.9
01:30 1018 30.06 847 25.01 11.1 52 47 0.3 32.5
01:35 1018 30.06 847 25.01 11.3 52.4 46 0.2 32.3
01:40 1018 30.06 847 25.01 11.4 52.5 46 0.3 32.5
01:45 1018 30.06 847 25.01 11.2 52.2 46 0.2 32.3
01:50 1018 30.06 847 25.01 11.3 52.4 46 0.1 32.1
01:55 1018 30.06 847 25.01 11.3 52.3 45 -0.1 31.8
02:00 1018 30.06 847 25.01 11.1 52.1 46 0 32
02:05 1018 30.06 847 25.01 11.1 52 47 0.2 32.4
02:10 1017 30.03 847 25.01 10.9 51.7 48 0.4 32.8
02:15 1017 30.03 847 25.01 10.8 51.4 48 0.3 32.5
02:20 1018 30.06 847 25.01 10.7 51.3 48 0.2 32.4
02:25 1017 30.03 847 25.01 10.7 51.2 48 0.1 32.3
02:30 1017 30.03 847 25.01 10.7 51.2 47 -0.3 31.5
02:35 1017 30.03 847 25.01 10.8 51.4 47 -0 31.9
02:40 1017 30.03 847 25.01 10.7 51.3 47 -0.2 31.7
02:45 1017 30.03 847 25.01 10.8 51.4 47 -0.1 31.8
02:50 1017 30.03 847 25.01 10.8 51.4 47 -0.1 31.8
02:55 1017 30.03 847 25.01 10.6 51 47 -0.3 31.5
03:00 1017 30.03 847 25.01 10.6 51.1 46 -0.4 31.3
03:05 1017 30.03 846 24.98 10.7 51.3 47 -0 31.9
03:10 1017 30.03 846 24.98 10.6 51.1 48 0.1 32.1
03:15 1017 30.03 846 24.98 10.5 50.9 48 0 32.1
03:20 1017 30.03 846 24.98 10.5 50.8 48 -0.1 31.8
03:25 1017 30.03 846 24.98 10.5 51 47 -0.3 31.5
03:30 1017 30.03 846 24.98 10.6 51.1 46 -0.4 31.2
03:35 1017 30.03 846 24.98 10.5 50.8 48 -0.2 31.7
03:40 1017 30.03 846 24.98 10.4 50.7 47 -0.3 31.4
03:45 1017 30.03 846 24.98 10.5 51 46 -0.5 31
03:50 1017 30.03 846 24.98 10.6 51 46 -0.5 31.2
03:55 1017 30.03 846 24.98 10.7 51.2 46 -0.4 31.3
04:00 1017 30.03 846 24.98 10.7 51.2 46 -0.4 31.3
04:05 1017 30.03 846 24.98 10.7 51.3 46 -0.5 31.1
04:10 1017 30.03 846 24.98 10.9 51.6 44 -0.7 30.7
04:15 1017 30.03 846 24.98 11.2 52.2 43 -0.8 30.6
04:20 1017 30.03 846 24.98 11.4 52.6 43 -0.6 30.8
04:25 1017 30.03 846 24.98 11.2 52.2 45 -0.3 31.4
04:30 1017 30.03 846 24.98 10.9 51.6 45 -0.4 31.2
04:35 1017 30.03 846 24.98 10.8 51.4 46 -0.4 31.3
04:40 1017 30.03 846 24.98 10.7 51.2 46 -0.3 31.5
04:45 1017 30.03 846 24.98 10.5 50.9 48 -0 31.9
04:50 1017 30.03 846 24.98 10.3 50.5 48 -0.1 31.8
04:55 1017 30.03 846 24.98 10.4 50.7 48 -0.1 31.8
05:00 1017 30.03 846 24.98 10.8 51.4 45 -0.5 31.1
05:05 1017 30.03 846 24.98 11.2 52.1 44 -0.7 30.8
05:10 1017 30.03 846 24.98 11.3 52.3 46 0.1 32.2
05:15 1017 30.03 846 24.98 10.9 51.6 46 -0.3 31.4
05:20 1017 30.03 846 24.98 10.7 51.3 48 0.3 32.5
05:25 1017 30.03 846 24.98 10.4 50.7 47 -0.3 31.4
05:30 1017 30.03 846 24.98 10.5 50.8 49 0.2 32.4
05:35 1017 30.03 846 24.98 10.1 50.2 50 0.3 32.6
05:40 1017 30.03 846 24.98 9.8 49.7 50 -0.2 31.7
05:45 1017 30.03 846 24.98 10.1 50.2 49 0 32.1
05:50 1017 30.03 846 24.98 9.9 49.8 50 -0 32
05:55 1017 30.03 846 24.98 10 50.1 50 0 32.1
06:00 1017 30.03 846 24.98 9.9 49.8 51 0.3 32.6
06:05 1017 30.03 846 24.98 9.7 49.4 51 0.2 32.3
06:10 1017 30.03 846 24.98 9.5 49.2 51 0.1 32.1
06:15 1017 30.03 846 24.98 9.7 49.4 50 -0.3 31.5
06:20 1017 30.03 846 24.98 10 50 50 0 32
06:25 1017 30.03 846 24.98 9.8 49.7 51 0.1 32.3
06:30 1017 30.03 846 24.98 9.5 49.2 52 0.3 32.5
06:35 1017 30.03 846 24.98 9.4 48.8 53 0.3 32.5
06:40 1017 30.03 847 25.01 9.3 48.7 53 0.3 32.6
06:45 1017 30.03 847 25.01 9.1 48.3 55 0.4 32.7
06:50 1017 30.03 847 25.01 8.9 48.1 54 0.2 32.3
06:55 1017 30.03 847 25.01 8.8 47.8 56 0.6 33.1
07:00 1017 30.03 847 25.01 8.7 47.6 56 0.4 32.8
07:05 1017 30.03 847 25.01 8.8 47.8 56 0.5 32.8
07:10 1017 30.03 847 25.01 8.5 47.3 59 1 33.8
07:15 1018 30.06 847 25.01 8 46.4 60 0.8 33.5
07:20 1018 30.06 847 25.01 8.2 46.7 59 0.7 33.2
07:25 1018 30.06 847 25.01 8.4 47.1 57 0.5 32.9
07:30 1018 30.06 847 25.01 8.2 46.8 58 0.5 32.9
07:35 1018 30.06 847 25.01 8.4 47.1 57 0.5 32.8
07:40 1018 30.06 847 25.01 8.4 47.2 58 0.7 33.3
07:45 1018 30.06 847 25.01 8.5 47.2 60 1.1 33.9
07:50 1018 30.06 847 25.01 8.3 46.9 61 1.1 34
07:55 1018 30.06 847 25.01 8.2 46.8 60 1 33.8
08:00 1018 30.06 847 25.01 8.4 47.1 60 1 33.8
08:05 1018 30.06 847 25.01 8.7 47.7 58 1 33.8
08:10 1018 30.06 847 25.01 9 48.2 57 0.9 33.6
08:15 1018 30.06 847 25.01 9.4 48.9 57 1.3 34.3
08:20 1018 30.06 847 25.01 9.6 49.3 57 1.5 34.8
08:25 1018 30.06 847 25.01 9.7 49.5 57 1.7 35
08:30 1018 30.06 847 25.01 10 49.9 55 1.3 34.3
08:35 1018 30.06 847 25.01 10.3 50.5 55 1.7 35
08:40 1018 30.06 847 25.01 10.3 50.6 55 1.8 35.2
08:45 1018 30.06 847 25.01 10.4 50.7 54 1.6 34.8
08:50 1018 30.06 847 25.01 10.6 51.1 54 1.6 35
08:55 1018 30.06 847 25.01 10.8 51.4 56 2.4 36.3
09:00 1018 30.06 847 25.01 10.9 51.6 55 2.4 36.3
09:05 1017 30.03 847 25.01 11.1 52 52 1.8 35.2
09:10 1018 30.06 847 25.01 11.6 52.8 52 2.1 35.8
09:15 1018 30.06 847 25.01 11.8 53.3 52 2.3 36.2
09:20 1017 30.03 847 25.01 11.8 53.2 52 2.3 36.1
09:25 1017 30.03 847 25.01 11.8 53.3 53 2.5 36.6
09:30 1017 30.03 847 25.01 12.1 53.9 54 3.1 37.5
09:35 1017 30.03 847 25.01 12.3 54.2 51 2.6 36.7
09:40 1017 30.03 847 25.01 12.6 54.6 50 2.4 36.2
09:45 1017 30.03 847 25.01 12.9 55.3 48 2.2 36
09:50 1017 30.03 847 25.01 13.4 56.2 44 1.4 34.6
09:55 1017 30.03 847 25.01 13.4 56.2 45 1.9 35.4
10:00 1017 30.03 847 25.01 13.5 56.4 44 1.7 35.1
10:05 1017 30.03 847 25.01 13.8 56.8 44 1.7 35
10:10 1017 30.03 847 25.01 14.3 57.7 42 1.7 35.1
10:15 1017 30.03 847 25.01 14.7 58.5 42 2.1 35.7
10:20 1017 30.03 847 25.01 15.1 59.1 42 2.3 36.1
10:25 1017 30.03 846 24.98 15.6 60.1 40 2 35.7
10:30 1017 30.03 846 24.98 16.2 61.1 37 1.7 35.1
10:35 1017 30.03 846 24.98 16.2 61.1 39 2.3 36.2
10:40 1017 30.03 846 24.98 16.7 62.1 31 -0.4 31.3
10:45 1017 30.03 846 24.98 17.6 63.6 30 -0.2 31.7
10:50 1017 30.03 846 24.98 18.6 65.5 27 -0.6 30.9
10:55 1017 30.03 846 24.98 19 66.2 27 -0.2 31.7
11:00 1017 30.03 846 24.98 20 67.9 24 -0.8 30.6
11:05 1017 30.03 846 24.98 20.4 68.7 24 -0.8 30.5
11:10 1017 30.03 846 24.98 20.5 68.9 24 -0.6 30.9
11:15 1017 30.03 846 24.98 20.6 69 24 -0.3 31.5
11:20 1017 30.03 846 24.98 20.7 69.3 24 -0.2 31.6
11:25 1017 30.03 846 24.98 21.5 70.7 22 -0.6 30.9
11:30 1017 30.03 846 24.98 22.1 71.8 23 0.5 32.9
11:35 1017 30.03 846 24.98 21.8 71.2 24 0.3 32.5
11:40 1017 30.03 846 24.98 22.8 73.1 22 0.1 32.2
11:45 1017 30.03 846 24.98 22.6 72.6 22 0.3 32.5
11:50 1017 30.03 846 24.98 21.8 71.3 23 -0.3 31.5
11:55 1016 30 846 24.98 22 71.5 22 -0.3 31.5
12:00 1016 30 846 24.98 22.7 72.8 20 -0.9 30.3
12:05 1016 30 846 24.98 23.2 73.8 20 -0.9 30.5
12:10 1016 30 846 24.98 22.9 73.3 21 -0.5 31
12:15 1016 30 846 24.98 23.3 73.9 21 -0.1 31.8
12:20 1016 30 845 24.95 23.6 74.4 20 -0.4 31.2
12:25 1016 30 845 24.95 23.6 74.5 21 -0 32
12:30 1016 30 845 24.95 22.9 73.3 22 -0 32
12:35 1016 30 845 24.95 23.6 74.5 20 -0.5 31.1
12:40 1016 30 845 24.95 24.1 75.3 19 -0.7 30.8
12:45 1016 30 845 24.95 24.4 76 18 -0.9 30.4
12:50 1016 30 845 24.95 24.5 76 19 -0.4 31.3
12:55 1016 30 845 24.95 24.5 76 18 -1 30.2
13:00 1016 30 845 24.95 24.2 75.5 19 -0.5 31.1
13:05 1016 30 845 24.95 24.4 76 18 -1.2 29.8
13:10 1016 30 845 24.95 25.1 77.1 18 -0.4 31.3
13:15 1016 30 845 24.95 25.5 77.9 18 -0.5 31
13:20 1015 29.97 845 24.95 25.6 78.1 17 -1 30.1
13:25 1015 29.97 845 24.95 25.9 78.6 17 -0.9 30.4
13:30 1015 29.97 845 24.95 26.1 79 17 -0.9 30.4
13:35 1015 29.97 845 24.95 26.2 79.2 16 -1.6 29.2
13:40 1015 29.97 845 24.95 26.2 79.2 14 -3.6 25.5
13:45 1015 29.97 845 24.95 25.5 77.9 14 -4.2 24.5
13:50 1015 29.97 844 24.92 25.6 78 13 -4.9 23.2
13:55 1015 29.97 844 24.92 25.7 78.2 13 -4.2 24.4
14:00 1015 29.97 844 24.92 26.2 79.2 13 -4.6 23.7
14:05 1015 29.97 844 24.92 26.2 79.2 12 -5.2 22.7
14:10 1015 29.97 844 24.92 26.1 78.9 12 -5.2 22.6
14:15 1015 29.97 844 24.92 26.5 79.6 12 -5.5 22.1
14:20 1015 29.97 844 24.92 26.8 80.2 11 -5.9 21.4
14:25 1015 29.97 844 24.92 26.7 80 12 -5 23.1
14:30 1015 29.97 844 24.92 26.8 80.2 11 -5.9 21.4
14:35 1015 29.97 844 24.92 26.7 80 11 -6 21.2
14:40 1015 29.97 844 24.92 26.4 79.6 11 -6.1 21.1
14:45 1015 29.97 844 24.92 26.5 79.7 12 -4.9 23.2
14:50 1015 29.97 844 24.92 26.5 79.6 12 -5.1 22.8
14:55 1015 29.97 844 24.92 26.5 79.7 12 -5.3 22.5
15:00 1015 29.97 844 24.92 26.7 80.1 11 -6 21.3
15:05 1015 29.97 844 24.92 27 80.7 11 -6.1 21
15:10 1015 29.97 844 24.92 27.1 80.7 11 -5.7 21.8
15:15 1015 29.97 844 24.92 27.2 81 11 -5.4 22.3
15:20 1015 29.97 844 24.92 27.3 81.2 11 -5.6 21.8
15:25 1014 29.94 844 24.92 27.3 81.1 11 -5.5 22
15:30 1014 29.94 844 24.92 27.3 81.1 11 -5 23
15:35 1014 29.94 844 24.92 27.7 81.9 11 -4.7 23.6
15:40 1014 29.94 843 24.89 27.4 81.3 11 -4.8 23.3
15:45 1014 29.94 843 24.89 27.1 80.8 12 -4.9 23.1
15:50 1014 29.94 843 24.89 27.1 80.7 11 -5.4 22.2
15:55 1014 29.94 843 24.89 27.3 81.1 11 -5.4 22.4
16:00 1014 29.94 843 24.89 27.6 81.7 11 -5.5 22.1
16:05 1014 29.94 843 24.89 27.6 81.7 11 -5.3 22.4
16:10 1014 29.94 843 24.89 27.7 81.9 11 -5.3 22.4
16:15 1014 29.94 843 24.89 27.7 81.8 11 -5.6 22
16:20 1014 29.94 843 24.89 27.3 81.2 11 -5.8 21.5
16:25 1014 29.94 843 24.89 27.5 81.5 11 -5 23
16:30 1014 29.94 843 24.89 27.6 81.7 11 -5.4 22.2
16:35 1014 29.94 843 24.89 27.6 81.6 11 -5.4 22.2
16:40 1014 29.94 843 24.89 27.7 81.9 11 -5.5 22.2
16:45 1014 29.94 843 24.89 27.4 81.4 11 -4.9 23.2
16:50 1014 29.94 843 24.89 27.2 81 11 -5.5 22.1
16:55 1014 29.94 843 24.89 27.1 80.8 12 -4.6 23.8
17:00 1014 29.94 843 24.89 27.3 81.1 12 -4.8 23.3
17:05 1014 29.94 843 24.89 27.3 81.1 11 -5.1 22.8
17:10 1014 29.94 843 24.89 27.2 81 13 -3.6 25.4
17:15 1014 29.94 843 24.89 26.8 80.3 13 -3.6 25.4
17:20 1014 29.94 843 24.89 26.4 79.5 13 -3.6 25.5
17:25 1014 29.94 843 24.89 26.2 79.2 13 -4.2 24.5
17:30 1014 29.94 843 24.89 26.3 79.3 12 -4.7 23.5
17:35 1014 29.94 843 24.89 26.5 79.7 13 -4 24.8
17:40 1014 29.94 843 24.89 26.6 79.9 13 -3.6 25.4
17:45 1014 29.94 843 24.89 26.4 79.6 14 -2.7 27.1
17:50 1014 29.94 843 24.89 26.2 79.2 14 -3.1 26.4
17:55 1014 29.94 843 24.89 26.1 78.9 14 -3.1 26.5
18:00 1014 29.94 843 24.89 25.9 78.6 15 -2.8 27
18:05 1014 29.94 843 24.89 25.9 78.6 14 -3 26.6
18:10 1014 29.94 843 24.89 26.2 79.2 14 -3.3 26.1
18:15 1014 29.94 843 24.89 26.6 80 13 -3.8 25.1
18:20 1014 29.94 843 24.89 27 80.7 12 -5 23
18:25 1014 29.94 843 24.89 27.2 80.9 12 -3.9 24.9
18:30 1014 29.94 843 24.89 26.7 80 12 -4.4 24
18:35 1014 29.94 843 24.89 26.3 79.3 13 -4.3 24.3
18:40 1014 29.94 843 24.89 26 78.8 13 -4.1 24.7
18:45 1014 29.94 843 24.89 25.8 78.4 14 -3.7 25.3
18:50 1014 29.94 843 24.89 25.6 78.1 14 -3.6 25.6
18:55 1014 29.94 843 24.89 25.4 77.6 15 -3.2 26.2
19:00 1014 29.94 843 24.89 25.1 77.3 15 -3 26.5
19:05 1014 29.94 843 24.89 25 77 15 -3.3 26
19:10 1014 29.94 843 24.89 24.9 76.8 15 -3 26.7
19:15 1014 29.94 843 24.89 24.9 76.8 15 -3 26.6
19:20 1014 29.94 844 24.92 24.9 76.8 15 -3.2 26.3
19:25 1014 29.94 844 24.92 24.9 76.9 16 -2 28.3
19:30 1014 29.94 844 24.92 24.7 76.4 17 -1.7 28.9
19:35 1014 29.94 844 24.92 24.4 76 15 -3.3 26
19:40 1014 29.94 844 24.92 24.6 76.2 15 -3.5 25.6
19:45 1014 29.94 844 24.92 24.6 76.3 16 -3.1 26.5
19:50 1014 29.94 844 24.92 24.5 76 16 -2.9 26.8
19:55 1014 29.94 844 24.92 24.2 75.5 17 -2.5 27.5
20:00 1014 29.94 844 24.92 24 75.1 17 -2 28.4
20:05 1014 29.94 844 24.92 23.6 74.5 18 -2.2 28
20:10 1015 29.97 844 24.92 23.5 74.2 19 -1.6 29.1
20:15 1015 29.97 844 24.92 23.1 73.6 19 -1.9 28.6
20:20 1015 29.97 844 24.92 22.8 73 19 -2.2 28
20:25 1015 29.97 844 24.92 22.5 72.5 19 -2.4 27.7
20:30 1015 29.97 844 24.92 22.4 72.3 18 -2.9 26.8
20:35 1015 29.97 844 24.92 22.4 72.4 17 -3.3 26
20:40 1015 29.97 844 24.92 22.4 72.4 18 -3 26.6
20:45 1015 29.97 844 24.92 22.3 72.1 18 -3.3 26
20:50 1015 29.97 844 24.92 22.4 72.3 17 -3.4 25.8
20:55 1015 29.97 844 24.92 22.2 72 18 -3.3 26.1
21:00 1015 29.97 844 24.92 22.1 71.8 17 -3.8 25.2
21:05 1015 29.97 844 24.92 22.3 72.1 17 -4 24.8
21:10 1015 29.97 844 24.92 22.1 71.9 18 -3.2 26.2
21:15 1015 29.97 844 24.92 21.8 71.3 18 -3.2 26.3
21:20 1015 29.97 844 24.92 21.4 70.6 18 -3.4 25.9
21:25 1015 29.97 844 24.92 21.3 70.3 19 -2.9 26.8
21:30 1015 29.97 844 24.92 21.4 70.5 18 -3.6 25.5
21:35 1015 29.97 844 24.92 21.5 70.8 18 -3.5 25.8
21:40 1015 29.97 844 24.92 21.7 71 19 -3 26.6
21:45 1015 29.97 844 24.92 21.5 70.7 19 -3.1 26.5
21:50 1015 29.97 844 24.92 21.6 70.8 18 -3.2 26.2
21:55 1015 29.97 844 24.92 21.4 70.5 20 -2.2 28
22:00 1015 29.97 844 24.92 21.2 70.1 19 -3.1 26.4
22:05 1015 29.97 844 24.92 21.2 70.1 19 -3.2 26.2
22:10 1015 29.97 844 24.92 21.1 70 19 -3.4 26
22:15 1015 29.97 844 24.92 21 69.8 20 -2.9 26.8
22:20 1015 29.97 844 24.92 20.6 69.1 22 -1.9 28.6
22:25 1015 29.97 844 24.92 20.5 68.8 20 -3.2 26.2
22:30 1015 29.97 845 24.95 20.7 69.3 21 -2.3 27.9
22:35 1015 29.97 845 24.95 20.6 69.1 20 -3.1 26.5
22:40 1015 29.97 845 24.95 20.5 68.8 20 -2.9 26.7
22:45 1015 29.97 845 24.95 20.4 68.6 20 -3 26.7
22:50 1015 29.97 845 24.95 20.3 68.5 20 -3 26.6
22:55 1015 29.97 845 24.95 20.2 68.3 21 -2.9 26.8
23:00 1015 29.97 845 24.95 20 68 21 -3 26.6
23:05 1015 29.97 845 24.95 20.1 68.1 22 -2.3 27.8
23:10 1015 29.97 845 24.95 19.8 67.7 22 -2.2 28
23:15 1015 29.97 845 24.95 19.9 67.7 22 -2.3 27.9
23:20 1015 29.97 845 24.95 19.7 67.4 22 -2.8 27
23:25 1015 29.97 845 24.95 19.6 67.2 22 -2.7 27.1
23:30 1015 29.97 845 24.95 19.4 66.9 22 -2.4 27.7
23:35 1015 29.97 845 24.95 19.4 66.9 23 -2.1 28.2
23:40 1015 29.97 845 24.95 19.2 66.5 24 -1.9 28.5
23:45 1015 29.97 845 24.95 19 66.2 22 -3 26.7
23:50 1015 29.97 845 24.95 19.3 66.7 23 -2 28.4
23:55 1015 29.97 845 24.95 19 66.1 27 -0.5 31.1
24:00 1016 30 845 24.95 19.1 66.5 24 -1.7 28.9